createdAt,value
2018-06-28T00:01:12.241Z,3.03
2018-06-28T00:03:41.246Z,3.77
2018-06-28T00:06:10.703Z,3.93
2018-06-28T00:08:39.814Z,3.37
2018-06-28T00:11:08.831Z,4.30
2018-06-28T00:13:37.881Z,3.40
2018-06-28T00:16:06.940Z,4.40
2018-06-28T00:18:36.264Z,3.30
2018-06-28T00:21:05.044Z,4.28
2018-06-28T00:23:33.947Z,3.37
2018-06-28T00:26:02.953Z,4.22
2018-06-28T00:28:31.990Z,3.30
2018-06-28T00:31:01.941Z,3.52
2018-06-28T00:33:31.174Z,3.10
2018-06-28T00:36:00.381Z,3.53
2018-06-28T00:38:29.494Z,4.10
2018-06-28T00:40:58.593Z,3.30
2018-06-28T00:43:27.571Z,4.43
2018-06-28T00:45:56.594Z,3.65
2018-06-28T00:48:25.580Z,4.13
2018-06-28T00:50:54.546Z,3.07
2018-06-28T00:53:23.311Z,4.20
2018-06-28T00:55:52.169Z,4.10
2018-06-28T00:58:21.123Z,3.62
2018-06-28T01:00:50.107Z,4.33
2018-06-28T01:03:19.051Z,3.73
2018-06-28T01:05:47.805Z,3.90
2018-06-28T01:08:16.671Z,3.30
2018-06-28T01:10:45.909Z,3.90
2018-06-28T01:13:15.015Z,3.17
2018-06-28T01:15:44.060Z,4.30
2018-06-28T01:18:12.874Z,3.50
2018-06-28T01:20:41.836Z,3.47
2018-06-28T01:23:10.797Z,4.10
2018-06-28T01:25:40.652Z,2.93
2018-06-28T01:28:09.606Z,4.10
2018-06-28T01:30:38.565Z,3.73
2018-06-28T01:33:07.579Z,4.00
2018-06-28T01:35:36.552Z,3.57
2018-06-28T01:38:05.656Z,3.93
2018-06-28T01:40:34.793Z,3.40
2018-06-28T01:43:28.649Z,3.80
2018-06-28T01:45:57.669Z,3.93
2018-06-28T01:48:26.672Z,3.47
2018-06-28T01:50:55.938Z,4.37
2018-06-28T01:53:25.122Z,4.07
2018-06-28T01:55:53.961Z,4.07
2018-06-28T01:58:22.856Z,4.83
2018-06-28T02:00:51.925Z,4.03
2018-06-28T02:03:20.944Z,4.87
2018-06-28T02:05:51.306Z,4.10
2018-06-28T02:08:20.568Z,4.73
2018-06-28T02:10:49.294Z,4.20
2018-06-28T02:13:18.299Z,5.17
2018-06-28T02:15:46.948Z,4.60
2018-06-28T02:18:16.347Z,4.23
2018-06-28T02:20:45.339Z,4.90
2018-06-28T02:23:14.464Z,4.67
2018-06-28T02:25:43.448Z,5.27
2018-06-28T02:28:12.673Z,5.30
2018-06-28T02:30:41.817Z,6.47
2018-06-28T02:33:11.851Z,6.23
2018-06-28T02:35:40.844Z,6.53
2018-06-28T02:38:09.860Z,6.10
2018-06-28T02:40:38.869Z,6.63
2018-06-28T02:43:07.873Z,6.43
2018-06-28T02:45:36.820Z,7.97
2018-06-28T02:48:06.835Z,6.53
2018-06-28T02:50:35.979Z,7.50
2018-06-28T02:53:04.785Z,6.97
2018-06-28T02:55:33.829Z,7.57
2018-06-28T02:58:03.554Z,7.13
2018-06-28T03:00:32.523Z,6.63
2018-06-28T03:03:01.319Z,7.63
2018-06-28T03:05:30.530Z,7.10
2018-06-28T03:07:59.259Z,7.67
2018-06-28T03:10:28.201Z,7.50
2018-06-28T03:12:57.010Z,7.33
2018-06-28T03:15:25.712Z,7.20
2018-06-28T03:17:54.581Z,6.47
2018-06-28T03:20:23.556Z,7.47
2018-06-28T03:22:52.343Z,7.13
2018-06-28T03:25:21.680Z,7.13
2018-06-28T03:27:50.378Z,6.83
2018-06-28T03:30:19.017Z,7.37
2018-06-28T03:32:48.057Z,6.80
2018-06-28T03:35:16.995Z,6.67
2018-06-28T03:37:46.559Z,6.80
2018-06-28T03:40:15.924Z,6.10
2018-06-28T03:42:44.950Z,7.23
2018-06-28T03:45:13.919Z,6.77
2018-06-28T03:47:42.912Z,7.00
2018-06-28T03:50:11.935Z,5.77
2018-06-28T03:52:40.919Z,6.70
2018-06-28T03:55:09.901Z,6.50
2018-06-28T03:57:38.988Z,6.67
2018-06-28T04:00:08.032Z,6.20
2018-06-28T04:02:37.177Z,6.73
2018-06-28T04:05:06.216Z,6.20
2018-06-28T04:07:35.195Z,5.90
2018-06-28T04:10:04.424Z,6.57
2018-06-28T04:12:33.267Z,5.97
2018-06-28T04:15:02.107Z,6.30
2018-06-28T04:17:31.104Z,6.00
2018-06-28T04:20:00.069Z,6.00
2018-06-28T04:22:31.349Z,5.83
2018-06-28T04:25:00.455Z,5.87
2018-06-28T04:27:29.527Z,6.17
2018-06-28T04:29:59.242Z,5.30
2018-06-28T04:32:28.207Z,5.90
2018-06-28T04:34:57.182Z,5.17
2018-06-28T04:37:26.224Z,5.58
2018-06-28T04:39:55.095Z,5.17
2018-06-28T04:42:23.969Z,5.83
2018-06-28T04:44:52.928Z,4.63
2018-06-28T04:47:21.677Z,4.97
2018-06-28T04:49:50.561Z,4.37
2018-06-28T04:52:19.491Z,3.70
2018-06-28T04:54:48.468Z,4.00
2018-06-28T04:57:17.800Z,3.67
2018-06-28T04:59:46.878Z,4.30
2018-06-28T05:02:15.885Z,3.60
2018-06-28T05:04:44.859Z,3.62
2018-06-28T05:07:13.943Z,3.17
2018-06-28T05:09:42.666Z,3.45
2018-06-28T05:12:11.987Z,3.67
2018-06-28T05:14:40.835Z,3.62
2018-06-28T05:17:09.853Z,3.90
2018-06-28T05:19:38.838Z,3.42
2018-06-28T05:22:07.855Z,3.83
2018-06-28T05:24:36.961Z,3.52
2018-06-28T05:27:06.143Z,3.98
2018-06-28T05:29:35.388Z,2.67
2018-06-28T05:32:04.551Z,3.64
2018-06-28T05:34:33.855Z,3.30
2018-06-28T05:37:02.926Z,3.40
2018-06-28T05:39:32.648Z,3.33
2018-06-28T05:42:01.540Z,2.85
2018-06-28T05:44:30.772Z,3.10
2018-06-28T05:46:59.774Z,2.83
2018-06-28T05:49:28.816Z,3.33
2018-06-28T05:51:57.845Z,2.95
2018-06-28T05:54:26.768Z,3.67
2018-06-28T05:56:55.658Z,3.67
2018-06-28T05:59:24.700Z,3.72
2018-06-28T06:01:53.863Z,3.30
2018-06-28T06:04:22.600Z,3.10
2018-06-28T06:06:51.515Z,3.70
2018-06-28T06:09:20.479Z,2.65
2018-06-28T06:11:49.474Z,3.50
2018-06-28T06:14:18.261Z,2.60
2018-06-28T06:16:47.080Z,3.60
2018-06-28T06:19:16.051Z,4.42
2018-06-28T06:21:45.326Z,3.75
2018-06-28T06:24:14.279Z,3.58
2018-06-28T06:26:42.993Z,3.30
2018-06-28T06:29:12.048Z,3.65
2018-06-28T06:31:40.858Z,3.12
2018-06-28T06:34:09.747Z,3.70
2018-06-28T06:36:38.811Z,3.05
2018-06-28T06:39:09.346Z,3.75
2018-06-28T06:41:38.383Z,3.10
2018-06-28T06:44:07.673Z,3.70
2018-06-28T06:46:36.802Z,3.22
2018-06-28T06:49:05.792Z,4.40
2018-06-28T06:51:34.771Z,3.80
2018-06-28T06:54:03.941Z,4.13
2018-06-28T06:56:33.417Z,3.30
2018-06-28T06:59:02.679Z,3.22
2018-06-28T07:01:31.638Z,4.17
2018-06-28T07:04:00.688Z,3.45
2018-06-28T07:06:29.725Z,3.83
2018-06-28T07:08:58.741Z,3.08
2018-06-28T07:11:27.707Z,3.70
2018-06-28T07:13:56.574Z,3.42
2018-06-28T07:16:25.486Z,3.47
2018-06-28T07:18:54.520Z,3.80
2018-06-28T07:21:23.617Z,3.10
2018-06-28T07:23:52.628Z,3.62
2018-06-28T07:26:21.728Z,2.90
2018-06-28T07:28:50.724Z,4.00
2018-06-28T07:31:19.895Z,2.70
2018-06-28T07:33:49.381Z,3.77
2018-06-28T07:36:18.360Z,3.30
2018-06-28T07:38:47.337Z,3.50
2018-06-28T07:41:16.255Z,3.83
2018-06-28T07:43:45.590Z,3.37
2018-06-28T07:46:14.465Z,3.45
2018-06-28T07:48:43.650Z,3.02
2018-06-28T07:51:12.595Z,3.60
2018-06-28T07:53:41.676Z,3.37
2018-06-28T07:56:10.522Z,4.07
2018-06-28T07:58:39.543Z,3.10
2018-06-28T08:01:08.507Z,3.35
2018-06-28T08:03:37.591Z,3.30
2018-06-28T08:06:06.657Z,3.10
2018-06-28T08:08:35.659Z,3.87
2018-06-28T08:11:04.665Z,2.92
2018-06-28T08:13:33.527Z,3.55
2018-06-28T08:16:02.624Z,3.20
2018-06-28T08:18:31.608Z,4.20
2018-06-28T08:21:00.616Z,3.52
2018-06-28T08:23:29.680Z,3.95
2018-06-28T08:25:58.623Z,4.55
2018-06-28T08:28:27.714Z,3.62
2018-06-28T08:30:56.660Z,3.47
2018-06-28T08:33:25.726Z,3.60
2018-06-28T08:35:54.808Z,5.12
2018-06-28T08:38:23.877Z,3.55
2018-06-28T08:40:52.939Z,3.90
2018-06-28T08:43:22.013Z,3.50
2018-06-28T08:45:50.957Z,4.40
2018-06-28T08:48:19.942Z,3.65
2018-06-28T08:50:48.650Z,4.17
2018-06-28T08:53:17.488Z,9.30
2018-06-28T08:55:46.477Z,3.75
2018-06-28T08:58:15.508Z,5.08
2018-06-28T09:00:44.456Z,3.60
2018-06-28T09:03:13.459Z,4.20
2018-06-28T09:05:42.459Z,6.90
2018-06-28T09:08:11.428Z,4.50
2018-06-28T09:10:40.216Z,3.83
2018-06-28T09:13:09.323Z,3.97
2018-06-28T09:15:38.496Z,4.12
2018-06-28T09:18:07.588Z,3.20
2018-06-28T09:20:36.666Z,3.75
2018-06-28T09:23:05.938Z,3.15
2018-06-28T09:25:34.925Z,4.55
2018-06-28T09:28:03.935Z,3.20
2018-06-28T09:30:32.928Z,3.62
2018-06-28T09:33:01.921Z,2.83
2018-06-28T09:35:30.880Z,4.25
2018-06-28T09:37:59.924Z,3.33
2018-06-28T09:40:28.943Z,4.60
2018-06-28T09:42:57.918Z,3.52
2018-06-28T09:45:26.932Z,3.12
2018-06-28T09:47:55.995Z,3.50
2018-06-28T09:50:25.008Z,3.08
2018-06-28T09:52:53.994Z,4.33
2018-06-28T09:55:23.227Z,3.47
2018-06-28T09:57:52.219Z,3.20
2018-06-28T10:00:26.628Z,3.08
2018-06-28T10:02:55.581Z,3.55
2018-06-28T10:05:24.655Z,3.05
2018-06-28T10:07:53.683Z,3.58
2018-06-28T10:10:22.739Z,3.42
2018-06-28T10:12:51.720Z,2.80
2018-06-28T10:15:20.734Z,3.90
2018-06-28T10:17:49.756Z,3.02
2018-06-28T10:20:18.783Z,3.27
2018-06-28T10:22:48.045Z,3.02
2018-06-28T10:25:17.084Z,4.35
2018-06-28T10:27:45.841Z,3.08
2018-06-28T10:30:15.447Z,3.40
2018-06-28T10:32:44.503Z,3.37
2018-06-28T10:35:14.007Z,2.90
2018-06-28T10:37:42.750Z,3.67
2018-06-28T10:40:11.588Z,2.72
2018-06-28T10:42:40.551Z,3.37
2018-06-28T10:45:09.546Z,3.25
2018-06-28T10:47:38.652Z,3.67
2018-06-28T10:50:07.357Z,2.85
2018-06-28T10:52:36.375Z,3.90
2018-06-28T10:55:05.466Z,2.80
2018-06-28T10:57:34.816Z,3.42
2018-06-28T11:00:04.047Z,3.00
2018-06-28T11:02:33.036Z,2.83
2018-06-28T11:05:01.771Z,3.55
2018-06-28T11:07:30.961Z,2.65
2018-06-28T11:09:59.578Z,2.77
2018-06-28T11:12:28.447Z,2.60
2018-06-28T11:14:57.431Z,3.30
2018-06-28T11:17:26.431Z,3.12
2018-06-28T11:19:55.509Z,3.40
2018-06-28T11:22:24.576Z,3.17
2018-06-28T11:24:53.378Z,2.58
2018-06-28T11:27:22.115Z,4.37
2018-06-28T11:29:51.151Z,2.75
2018-06-28T11:32:20.335Z,3.90
2018-06-28T11:34:49.804Z,2.60
2018-06-28T11:37:18.811Z,3.45
2018-06-28T11:39:47.776Z,2.50
2018-06-28T11:42:16.594Z,3.15
2018-06-28T11:44:45.202Z,3.00
2018-06-28T11:47:13.867Z,3.25
2018-06-28T11:49:42.754Z,3.45
2018-06-28T11:52:11.809Z,2.37
2018-06-28T11:54:40.735Z,3.52
2018-06-28T11:57:09.718Z,2.17
2018-06-28T11:59:38.716Z,3.85
2018-06-28T12:02:07.975Z,2.75
2018-06-28T12:04:36.992Z,3.42
2018-06-28T12:07:05.835Z,2.83
2018-06-28T12:09:34.775Z,2.50
2018-06-28T12:12:03.577Z,3.62
2018-06-28T12:14:32.438Z,2.43
2018-06-28T12:17:01.413Z,3.70
2018-06-28T12:19:30.379Z,2.65
2018-06-28T12:21:59.347Z,3.77
2018-06-28T12:24:28.379Z,2.50
2018-06-28T12:26:57.332Z,3.70
2018-06-28T12:29:26.485Z,3.02
2018-06-28T12:31:55.579Z,2.65
2018-06-28T12:34:24.588Z,3.55
2018-06-28T12:36:53.599Z,3.50
2018-06-28T12:39:22.637Z,3.58
2018-06-28T12:41:51.599Z,2.20
2018-06-28T12:44:20.724Z,3.85
2018-06-28T12:48:58.183Z,2.52
2018-06-28T12:51:38.717Z,3.10
2018-06-28T12:54:07.765Z,3.10
2018-06-28T12:56:37.989Z,3.33
2018-06-28T12:59:08.984Z,2.30
2018-06-28T13:01:37.828Z,3.47
2018-06-28T13:04:06.634Z,3.25
2018-06-28T13:06:35.339Z,3.35
2018-06-28T13:09:14.244Z,3.03
2018-06-28T13:11:43.039Z,3.23
2018-06-28T13:14:11.957Z,3.98
2018-06-28T13:16:40.972Z,3.80
2018-06-28T13:19:09.989Z,2.45
2018-06-28T13:21:39.056Z,3.10
2018-06-28T13:24:07.928Z,3.16
2018-06-28T13:26:36.836Z,3.12
2018-06-28T13:29:05.840Z,3.42
2018-06-28T13:31:34.877Z,2.42
2018-06-28T13:34:03.944Z,2.92
2018-06-28T13:36:33.494Z,2.30
2018-06-28T13:39:02.542Z,3.15
2018-06-28T13:41:31.812Z,2.42
2018-06-28T13:44:00.635Z,2.55
2018-06-28T13:46:29.594Z,2.67
2018-06-28T13:48:58.423Z,2.05
2018-06-28T13:51:27.303Z,3.72
2018-06-28T13:53:56.307Z,4.00
2018-06-28T13:56:25.143Z,3.10
2018-06-28T13:58:54.032Z,2.12
2018-06-28T14:01:23.016Z,3.25
2018-06-28T14:03:52.002Z,2.05
2018-06-28T14:06:21.119Z,2.92
2018-06-28T14:08:50.194Z,2.50
2018-06-28T14:11:19.203Z,2.72
2018-06-28T14:13:48.072Z,2.85
2018-06-28T14:16:16.903Z,2.33
2018-06-28T14:18:46.004Z,3.25
2018-06-28T14:21:15.012Z,2.02
2018-06-28T14:23:44.027Z,3.35
2018-06-28T14:26:13.011Z,2.10
2018-06-28T14:28:41.975Z,3.12
2018-06-28T14:31:10.995Z,2.30
2018-06-28T14:33:40.771Z,2.95
2018-06-28T14:36:09.711Z,3.07
2018-06-28T14:38:38.712Z,2.00
2018-06-28T14:41:07.554Z,2.85
2018-06-28T14:43:36.396Z,4.85
2018-06-28T14:46:05.670Z,4.75
2018-06-28T14:48:35.318Z,2.10
2018-06-28T14:51:04.568Z,2.70
2018-06-28T14:53:34.293Z,1.85
2018-06-28T14:56:03.264Z,3.52
2018-06-28T14:58:32.349Z,2.45
2018-06-28T15:01:01.127Z,2.52
2018-06-28T15:03:30.260Z,3.00
2018-06-28T15:05:59.068Z,3.37
2018-06-28T15:08:27.956Z,4.35
2018-06-28T15:10:57.009Z,3.20
2018-06-28T15:13:26.838Z,4.33
2018-06-28T15:15:56.563Z,3.14
2018-06-28T15:18:25.599Z,3.75
2018-06-28T15:20:54.558Z,1.98
2018-06-28T15:23:23.535Z,3.70
2018-06-28T15:25:53.474Z,6.13
2018-06-28T15:28:23.207Z,2.87
2018-06-28T15:30:52.065Z,2.70
2018-06-28T15:33:21.159Z,2.47
2018-06-28T15:35:50.103Z,3.47
2018-06-28T15:38:19.140Z,4.20
2018-06-28T15:40:48.239Z,3.17
2018-06-28T15:43:17.220Z,2.20
2018-06-28T15:45:46.388Z,3.45
2018-06-28T15:48:15.399Z,15.80
2018-06-28T15:50:44.516Z,3.25
2018-06-28T15:53:13.500Z,2.75
2018-06-28T15:55:42.602Z,2.08
2018-06-28T15:58:12.908Z,3.05
2018-06-28T16:00:41.971Z,2.67
2018-06-28T16:03:12.408Z,4.77
2018-06-28T16:05:41.548Z,2.30
2018-06-28T16:08:10.663Z,3.17
2018-06-28T16:10:39.750Z,2.67
2018-06-28T16:13:09.229Z,2.58
2018-06-28T16:15:38.082Z,2.40
2018-06-28T16:18:06.988Z,2.70
2018-06-28T16:20:35.984Z,2.33
2018-06-28T16:23:04.978Z,2.40
2018-06-28T16:25:33.983Z,2.35
2018-06-28T16:28:02.984Z,2.08
2018-06-28T16:30:31.963Z,3.25
2018-06-28T16:33:00.972Z,2.08
2018-06-28T16:35:30.087Z,2.90
2018-06-28T16:37:59.033Z,2.10
2018-06-28T16:40:28.350Z,2.90
2018-06-28T16:42:57.371Z,2.45
2018-06-28T16:45:26.331Z,2.27
2018-06-28T16:47:55.307Z,4.00
2018-06-28T16:50:24.059Z,2.75
2018-06-28T16:52:52.949Z,3.75
2018-06-28T16:55:21.932Z,2.52
2018-06-28T16:57:50.983Z,2.85
2018-06-28T17:00:19.899Z,2.83
2018-06-28T17:02:48.920Z,2.75
2018-06-28T17:05:17.762Z,2.67
2018-06-28T17:07:46.689Z,2.27
2018-06-28T17:10:15.674Z,2.90
2018-06-28T17:12:44.799Z,2.30
2018-06-28T17:15:14.001Z,2.90
2018-06-28T17:17:43.159Z,2.02
2018-06-28T17:20:12.473Z,2.55
2018-06-28T17:22:41.424Z,2.75
2018-06-28T17:25:10.504Z,3.25
2018-06-28T17:27:39.451Z,1.87
2018-06-28T17:30:08.475Z,2.55
2018-06-28T17:32:37.300Z,2.50
2018-06-28T17:35:06.467Z,2.40
2018-06-28T17:37:35.911Z,2.75
2018-06-28T17:40:05.706Z,2.37
2018-06-28T17:42:34.669Z,2.90
2018-06-28T17:45:03.721Z,1.67
2018-06-28T17:47:32.652Z,2.60
2018-06-28T17:50:01.527Z,1.77
2018-06-28T17:52:30.302Z,2.80
2018-06-28T17:54:59.190Z,2.50
2018-06-28T17:57:28.383Z,3.30
2018-06-28T17:59:57.420Z,2.95
2018-06-28T18:02:27.573Z,2.30
2018-06-28T18:04:56.660Z,2.60
2018-06-28T18:07:25.628Z,2.40
2018-06-28T18:09:54.876Z,2.77
2018-06-28T18:12:23.850Z,2.22
2018-06-28T18:14:52.790Z,2.90
2018-06-28T18:17:21.563Z,2.08
2018-06-28T18:19:50.481Z,4.97
2018-06-28T18:22:19.507Z,2.37
2018-06-28T18:24:48.564Z,2.08
2018-06-28T18:27:17.614Z,2.83
2018-06-28T18:29:46.661Z,2.08
2018-06-28T18:32:15.674Z,2.40
2018-06-28T18:34:44.768Z,1.60
2018-06-28T18:37:13.810Z,2.40
2018-06-28T18:39:42.670Z,2.50
2018-06-28T18:42:11.599Z,1.98
2018-06-28T18:44:40.425Z,2.10
2018-06-28T18:47:09.094Z,1.85
2018-06-28T18:49:39.205Z,2.33
2018-06-28T18:52:10.239Z,1.75
2018-06-28T18:54:39.391Z,2.42
2018-06-28T18:57:08.497Z,2.15
2018-06-28T18:59:37.292Z,2.62
2018-06-28T19:02:06.539Z,2.00
2018-06-28T19:04:35.540Z,2.80
2018-06-28T19:07:04.925Z,2.22
2018-06-28T19:09:39.415Z,2.33
2018-06-28T19:12:09.467Z,1.98
2018-06-28T19:14:44.090Z,2.87
2018-06-28T19:17:13.123Z,2.40
2018-06-28T19:19:42.385Z,3.05
2018-06-28T19:22:16.767Z,2.12
2018-06-28T19:24:45.851Z,2.98
2018-06-28T19:27:14.962Z,1.98
2018-06-28T19:29:49.480Z,2.77
2018-06-28T19:32:23.885Z,2.00
2018-06-28T19:34:53.071Z,2.33
2018-06-28T19:37:27.562Z,2.30
2018-06-28T19:40:02.930Z,2.15
2018-06-28T19:42:37.397Z,2.58
2018-06-28T19:45:06.923Z,2.47
2018-06-28T19:47:36.637Z,3.15
2018-06-28T19:50:11.295Z,2.08
2018-06-28T19:52:46.126Z,3.60
2018-06-28T19:55:15.174Z,2.62
2018-06-28T19:57:43.987Z,3.50
2018-06-28T20:00:18.185Z,2.45
2018-06-28T20:02:52.572Z,3.90
2018-06-28T20:05:22.525Z,2.75
2018-06-28T20:07:51.693Z,3.00
2018-06-28T20:10:20.888Z,3.72
2018-06-28T20:12:55.330Z,3.65
2018-06-28T20:16:02.668Z,3.00
2018-06-28T20:18:37.057Z,2.50
2018-06-28T20:21:06.291Z,4.12
2018-06-28T20:23:35.388Z,2.50
2018-06-28T20:26:09.777Z,3.12
2018-06-28T20:28:44.404Z,2.50
2018-06-28T20:31:18.598Z,3.43
2018-06-28T20:33:53.023Z,2.83
2018-06-28T20:36:22.957Z,3.35
2018-06-28T20:38:52.065Z,3.30
2018-06-28T20:41:21.075Z,3.57
2018-06-28T20:43:50.112Z,2.60
2018-06-28T20:46:19.184Z,3.52
2018-06-28T20:48:48.227Z,2.35
2018-06-28T20:51:17.265Z,2.85
2018-06-28T20:53:46.364Z,2.50
2018-06-28T20:56:15.472Z,3.60
2018-06-28T20:58:45.994Z,3.00
2018-06-28T21:01:15.223Z,3.63
2018-06-28T21:03:44.524Z,3.20
2018-06-28T21:06:13.655Z,2.98
2018-06-28T21:08:42.697Z,4.22
2018-06-28T21:11:11.748Z,2.92
2018-06-28T21:13:40.770Z,4.37
2018-06-28T21:16:09.949Z,3.40
2018-06-28T21:18:38.987Z,4.35
2018-06-28T21:21:08.052Z,3.47
2018-06-28T21:23:37.086Z,4.33
2018-06-28T21:26:06.140Z,3.75
2018-06-28T21:28:35.089Z,3.72
2018-06-28T21:31:03.879Z,3.30
2018-06-28T21:33:32.785Z,2.87
2018-06-28T21:36:01.767Z,4.55
2018-06-28T21:38:30.562Z,3.40
2018-06-28T21:40:59.392Z,4.47
2018-06-28T21:43:28.400Z,3.08
2018-06-28T21:45:57.428Z,3.55
2018-06-28T21:48:26.487Z,4.36
2018-06-28T21:50:55.484Z,3.92
2018-06-28T21:53:24.242Z,2.77
2018-06-28T21:55:53.152Z,2.95
2018-06-28T21:58:22.247Z,3.80
2018-06-28T22:00:51.192Z,3.17
2018-06-28T22:03:20.193Z,3.52
2018-06-28T22:05:48.915Z,3.27
2018-06-28T22:08:17.848Z,3.27
2018-06-28T22:10:47.555Z,2.33
2018-06-28T22:13:16.602Z,3.20
2018-06-28T22:15:45.592Z,3.20
2018-06-28T22:18:14.600Z,3.27
2018-06-28T22:20:43.819Z,3.15
2018-06-28T22:23:12.723Z,2.27
2018-06-28T22:25:41.650Z,3.52
2018-06-28T22:28:10.714Z,3.00
2018-06-28T22:30:39.731Z,4.10
2018-06-28T22:33:08.697Z,3.20
2018-06-28T22:35:37.754Z,3.72
2018-06-28T22:38:06.734Z,3.17
2018-06-28T22:40:35.567Z,3.45
2018-06-28T22:43:04.394Z,3.45
2018-06-28T22:45:33.368Z,3.20
2018-06-28T22:48:02.392Z,4.07
2018-06-28T22:50:31.501Z,3.00
2018-06-28T22:53:00.366Z,4.17
2018-06-28T22:55:29.433Z,2.95
2018-06-28T22:57:58.452Z,4.58
2018-06-28T23:00:27.807Z,3.80
2018-06-28T23:02:56.676Z,4.17
2018-06-28T23:05:25.466Z,4.17
2018-06-28T23:07:54.498Z,3.33
2018-06-28T23:10:23.602Z,4.08
2018-06-28T23:12:52.588Z,3.10
2018-06-28T23:15:21.387Z,4.20
2018-06-28T23:17:50.254Z,3.15
2018-06-28T23:20:19.254Z,3.65
2018-06-28T23:22:49.586Z,2.62
2018-06-28T23:25:18.870Z,3.52
2018-06-28T23:27:48.543Z,3.45
2018-06-28T23:30:17.732Z,2.58
2018-06-28T23:32:46.852Z,3.70
2018-06-28T23:35:15.883Z,2.77
2018-06-28T23:37:44.888Z,3.80
2018-06-28T23:40:14.566Z,3.00
2018-06-28T23:42:43.452Z,4.08
2018-06-28T23:45:12.548Z,3.25
2018-06-28T23:47:41.623Z,3.90
2018-06-28T23:50:10.998Z,3.35
2018-06-28T23:52:39.919Z,3.87
2018-06-28T23:55:08.868Z,3.22
2018-06-28T23:57:37.830Z,3.17
